Главная страница
METAR-TAF:

METAR-TAF

Аэропорты :

Тулча, Румыния

широта: 45-11N, долгота: 028-49E, высота над уровнем моря: 4 м

Текущие метеонаблюдения

Эта сводка был подготовлена 41 минут назад, в 02:00 UTC
Ветер 8 Узел от северный
Температура 23°C
Влажность 69%
Давление 1017 hPa
Видимость 10 км и более

METAR: LRTC 210200Z AUTO 36008KT 9999 NCD 23/17 Q1017

Время: 05:41 (02:41 UTC)

Прогноз

Эта сводка был подготовлена 12 часа и 41 минут назад, в 14:00 UTC
Прогноз действительный с 20-го 15 UTC до 20-го 24 UTC
Ветер 4 Узел переменных направлений
Видимость 10 км и более
Нет облачности ниже 1500 м, и нет кучево-дождевой облачности
временами
С 20-го 16 UTC до 20-го 24 UTC
небольшая облачность на высоте 5000 фута, Кучево-дождевые.

TAF: LRTC 201400Z 2015/2024 VRB04KT CAVOK TEMPO 2016/2024 FEW050CB

Метеонаблюдения и прогнозы для более 4000 аэропортов (сводки METAR и TAF).

Имеющиеся станции представлены на карте желтыми и красными точками.

Чтобы увидеть название станции, наведите на нее мышь.

Затем щелкните, чтобы увидеть метеонаблюдения и метеопрогнозы.

Управление картой: чтобы увеличить масштаб, щелкните зеленые кнопки с черным крестиком; чтобы уменьшить масштаб, щелкните зеленую кнопку с тире; для просмотра соседних карт щелкайте зеленые стрелки.


METAR-TAF: